createdAt,value
2023-05-19T00:01:13.218Z,8.19
2023-05-19T00:03:49.131Z,8.13
2023-05-19T00:06:15.778Z,8.09
2023-05-19T00:08:42.398Z,8.06
2023-05-19T00:11:09.330Z,8.06
2023-05-19T00:13:35.936Z,8.07
2023-05-19T00:16:02.707Z,8.04
2023-05-19T00:18:29.317Z,8.06
2023-05-19T00:20:55.874Z,8.07
2023-05-19T00:23:22.410Z,8.08
2023-05-19T00:25:49.060Z,8.06
2023-05-19T00:28:15.602Z,8.05
2023-05-19T00:30:42.197Z,8.04
2023-05-19T00:33:09.043Z,8.08
2023-05-19T00:35:35.630Z,8.01
2023-05-19T00:38:02.305Z,8.06
2023-05-19T00:40:29.318Z,8.04
2023-05-19T00:42:55.889Z,8.00
2023-05-19T00:45:22.479Z,7.95
2023-05-19T00:47:49.118Z,7.98
2023-05-19T00:50:15.732Z,7.97
2023-05-19T00:52:42.328Z,7.98
2023-05-19T00:55:09.053Z,7.96
2023-05-19T00:57:35.732Z,7.90
2023-05-19T01:00:02.458Z,7.86
2023-05-19T01:02:29.115Z,7.82
2023-05-19T01:04:57.112Z,7.86
2023-05-19T01:07:23.708Z,7.88
2023-05-19T01:09:50.289Z,7.88
2023-05-19T01:12:16.827Z,7.87
2023-05-19T01:14:43.422Z,7.76
2023-05-19T01:17:13.029Z,7.80
2023-05-19T01:20:02.836Z,7.81
2023-05-19T01:22:36.749Z,7.76
2023-05-19T01:25:21.568Z,7.80
2023-05-19T01:28:11.944Z,7.74
2023-05-19T01:30:44.652Z,7.75
2023-05-19T01:33:12.920Z,7.75
2023-05-19T01:35:39.777Z,7.74
2023-05-19T01:38:08.810Z,7.71
2023-05-19T01:40:35.573Z,7.72
2023-05-19T01:43:02.142Z,7.70
2023-05-19T01:45:28.957Z,7.63
2023-05-19T01:47:56.933Z,7.71
2023-05-19T01:50:23.582Z,7.73
2023-05-19T01:52:50.304Z,7.73
2023-05-19T01:55:16.928Z,7.69
2023-05-19T01:57:43.449Z,7.68
2023-05-19T02:00:09.987Z,7.66
2023-05-19T02:03:02.582Z,7.61
2023-05-19T02:05:36.430Z,7.59
2023-05-19T02:08:13.471Z,7.59
2023-05-19T02:10:41.228Z,7.55
2023-05-19T02:13:07.844Z,7.53
2023-05-19T02:15:40.301Z,7.46
2023-05-19T02:18:06.973Z,7.51
2023-05-19T02:20:33.778Z,7.48
2023-05-19T02:23:00.670Z,7.48
2023-05-19T02:25:27.265Z,7.46
2023-05-19T02:27:54.624Z,7.49
2023-05-19T02:30:21.245Z,7.52
2023-05-19T02:32:47.839Z,7.53
2023-05-19T02:35:14.477Z,7.53
2023-05-19T02:37:41.081Z,7.55
2023-05-19T02:40:08.337Z,7.53
2023-05-19T02:42:34.964Z,7.54
2023-05-19T02:45:01.565Z,7.59
2023-05-19T02:47:28.234Z,7.62
2023-05-19T02:49:54.867Z,7.64
2023-05-19T02:52:21.454Z,7.62
2023-05-19T02:54:48.047Z,7.66
2023-05-19T02:57:14.667Z,7.71
2023-05-19T02:59:41.301Z,7.73
2023-05-19T03:02:07.923Z,7.77
2023-05-19T03:04:34.618Z,7.74
2023-05-19T03:07:01.126Z,7.78
2023-05-19T03:09:27.744Z,7.79
2023-05-19T03:11:54.344Z,7.80
2023-05-19T03:14:21.048Z,7.81
2023-05-19T03:16:47.843Z,7.82
2023-05-19T03:19:14.556Z,7.85
2023-05-19T03:21:41.154Z,7.83
2023-05-19T03:24:07.776Z,7.87
2023-05-19T03:26:34.616Z,7.88
2023-05-19T03:29:01.271Z,7.88
2023-05-19T03:31:27.864Z,7.85
2023-05-19T03:33:54.429Z,7.87
2023-05-19T03:36:21.001Z,7.87
2023-05-19T03:38:47.583Z,7.85
2023-05-19T03:41:14.185Z,7.88
2023-05-19T03:43:40.768Z,7.90
2023-05-19T03:46:07.384Z,7.94
2023-05-19T03:48:34.024Z,7.92
2023-05-19T03:51:00.616Z,7.95
2023-05-19T03:53:27.254Z,7.96
2023-05-19T03:55:53.783Z,7.95
2023-05-19T03:58:20.341Z,7.89
2023-05-19T04:00:46.899Z,7.92
2023-05-19T04:03:13.641Z,7.93
2023-05-19T04:05:40.368Z,7.97
2023-05-19T04:08:06.927Z,7.99
2023-05-19T04:10:33.649Z,8.03
2023-05-19T04:13:00.380Z,8.05
2023-05-19T04:15:26.963Z,8.09
2023-05-19T04:17:53.525Z,8.13
2023-05-19T04:20:20.146Z,8.10
2023-05-19T04:22:46.734Z,7.99
2023-05-19T04:25:13.278Z,8.11
2023-05-19T04:27:39.873Z,8.12
2023-05-19T04:30:06.913Z,8.13
2023-05-19T04:32:33.586Z,8.16
2023-05-19T04:35:00.241Z,8.18
2023-05-19T04:37:26.917Z,8.20
2023-05-19T04:39:53.530Z,8.21
2023-05-19T04:42:20.301Z,8.29
2023-05-19T04:44:47.289Z,8.33
2023-05-19T04:47:13.874Z,8.41
2023-05-19T04:49:40.461Z,8.44
2023-05-19T04:52:07.749Z,8.45
2023-05-19T04:54:37.990Z,8.49
2023-05-19T04:57:04.787Z,8.50
2023-05-19T04:59:31.430Z,8.51
2023-05-19T05:01:58.116Z,8.56
2023-05-19T05:04:24.752Z,8.62
2023-05-19T05:06:51.289Z,8.63
2023-05-19T05:09:17.895Z,8.74
2023-05-19T05:11:44.791Z,8.83
2023-05-19T05:14:11.599Z,8.86
2023-05-19T05:16:38.418Z,8.94
2023-05-19T05:19:05.226Z,9.01
2023-05-19T05:21:31.998Z,9.10
2023-05-19T05:23:58.758Z,9.19
2023-05-19T05:26:25.320Z,9.25
2023-05-19T05:28:51.924Z,9.31
2023-05-19T05:31:18.565Z,9.39
2023-05-19T05:33:45.172Z,9.52
2023-05-19T05:36:11.764Z,9.58
2023-05-19T05:38:38.413Z,9.63
2023-05-19T05:41:05.037Z,9.72
2023-05-19T05:43:31.636Z,9.74
2023-05-19T05:45:58.251Z,9.76
2023-05-19T05:48:25.192Z,9.81
2023-05-19T05:50:52.787Z,9.89
2023-05-19T05:53:20.373Z,9.98
2023-05-19T05:55:47.786Z,10.05
2023-05-19T05:58:14.456Z,10.13
2023-05-19T06:00:41.771Z,10.20
2023-05-19T06:03:08.496Z,10.29
2023-05-19T06:05:35.652Z,10.35
2023-05-19T06:08:02.336Z,10.45
2023-05-19T06:10:29.066Z,10.51
2023-05-19T06:12:55.713Z,10.61
2023-05-19T06:15:22.542Z,10.66
2023-05-19T06:17:49.157Z,10.76
2023-05-19T06:20:15.803Z,10.77
2023-05-19T06:22:42.381Z,10.83
2023-05-19T06:25:09.194Z,10.77
2023-05-19T06:27:35.998Z,10.83
2023-05-19T06:30:02.782Z,10.90
2023-05-19T06:32:29.400Z,10.96
2023-05-19T06:34:56.088Z,11.05
2023-05-19T06:37:22.793Z,11.11
2023-05-19T06:39:55.268Z,11.17
2023-05-19T06:42:21.888Z,11.24
2023-05-19T06:44:49.776Z,11.28
2023-05-19T06:47:16.954Z,11.40
2023-05-19T06:49:44.534Z,11.43
2023-05-19T06:52:11.573Z,11.56
2023-05-19T06:54:38.280Z,11.70
2023-05-19T06:57:05.106Z,11.75
2023-05-19T06:59:31.735Z,11.75
2023-05-19T07:01:58.392Z,11.76
2023-05-19T07:04:25.079Z,11.74
2023-05-19T07:06:51.719Z,11.73
2023-05-19T07:09:18.328Z,11.86
2023-05-19T07:11:45.296Z,11.96
2023-05-19T07:14:11.929Z,11.98
2023-05-19T07:16:38.567Z,11.93
2023-05-19T07:19:05.241Z,11.98
2023-05-19T07:21:31.833Z,12.06
2023-05-19T07:23:58.351Z,12.17
2023-05-19T07:26:25.020Z,12.23
2023-05-19T07:28:51.678Z,12.18
2023-05-19T07:31:18.294Z,12.13
2023-05-19T07:33:44.932Z,12.20
2023-05-19T07:36:11.520Z,12.29
2023-05-19T07:38:38.174Z,12.49
2023-05-19T07:41:04.902Z,12.71
2023-05-19T07:43:31.533Z,12.95
2023-05-19T07:45:58.290Z,13.15
2023-05-19T07:48:24.859Z,13.34
2023-05-19T07:50:51.955Z,13.66
2023-05-19T07:53:19.360Z,13.83
2023-05-19T07:55:46.419Z,13.94
2023-05-19T07:58:12.989Z,14.04
2023-05-19T08:00:39.604Z,14.08
2023-05-19T08:03:06.336Z,14.24
2023-05-19T08:05:34.046Z,14.26
2023-05-19T08:08:00.656Z,14.19
2023-05-19T08:10:27.289Z,14.20
2023-05-19T08:12:53.897Z,14.32
2023-05-19T08:15:20.730Z,14.37
2023-05-19T08:17:47.476Z,14.56
2023-05-19T08:20:14.089Z,14.66
2023-05-19T08:22:40.727Z,14.81
2023-05-19T08:25:07.460Z,14.96
2023-05-19T08:27:34.051Z,15.07
2023-05-19T08:30:00.712Z,15.07
2023-05-19T08:32:27.340Z,15.19
2023-05-19T08:34:53.940Z,15.24
2023-05-19T08:37:20.483Z,15.29
2023-05-19T08:39:47.053Z,15.24
2023-05-19T08:42:13.599Z,15.22
2023-05-19T08:44:40.213Z,15.43
2023-05-19T08:47:06.771Z,15.72
2023-05-19T08:49:35.359Z,16.05
2023-05-19T08:52:32.178Z,16.36
2023-05-19T08:55:09.104Z,16.31
2023-05-19T08:57:36.332Z,16.20
2023-05-19T09:00:03.812Z,16.06
2023-05-19T09:02:30.424Z,16.12
2023-05-19T09:04:57.157Z,16.32
2023-05-19T09:07:23.823Z,16.43
2023-05-19T09:09:50.465Z,16.52
2023-05-19T09:12:17.027Z,16.78
2023-05-19T09:14:43.559Z,17.04
2023-05-19T09:17:10.261Z,17.10
2023-05-19T09:19:36.903Z,17.32
2023-05-19T09:22:03.615Z,17.51
2023-05-19T09:24:30.340Z,17.66
2023-05-19T09:26:57.946Z,17.86
2023-05-19T09:29:26.337Z,18.01
2023-05-19T09:31:54.411Z,18.02
2023-05-19T09:34:21.668Z,18.37
2023-05-19T09:36:48.370Z,18.46
2023-05-19T09:39:19.101Z,18.37
2023-05-19T09:41:45.962Z,18.32
2023-05-19T09:44:25.462Z,18.41
2023-05-19T09:46:52.463Z,18.36
2023-05-19T09:49:31.593Z,18.36
2023-05-19T09:51:59.313Z,18.40
2023-05-19T09:54:26.141Z,18.57
2023-05-19T09:56:59.130Z,18.68
2023-05-19T09:59:26.078Z,18.74
2023-05-19T10:01:54.655Z,18.88
2023-05-19T10:04:21.381Z,18.98
2023-05-19T10:06:49.772Z,19.06
2023-05-19T10:09:16.388Z,19.18
2023-05-19T10:11:42.953Z,19.39
2023-05-19T10:14:09.608Z,19.40
2023-05-19T10:16:36.205Z,19.40
2023-05-19T10:19:02.846Z,19.27
2023-05-19T10:21:29.513Z,19.07
2023-05-19T10:23:56.092Z,19.13
2023-05-19T10:26:22.615Z,19.24
2023-05-19T10:28:49.248Z,19.25
2023-05-19T10:31:17.157Z,19.31
2023-05-19T10:34:09.186Z,19.43
2023-05-19T10:36:47.710Z,19.58
2023-05-19T10:39:28.303Z,19.76
2023-05-19T10:42:15.887Z,19.89
2023-05-19T10:44:48.867Z,19.95
2023-05-19T10:47:15.574Z,19.98
2023-05-19T10:49:42.394Z,20.11
2023-05-19T10:52:24.391Z,20.06
2023-05-19T10:54:50.990Z,19.82
2023-05-19T10:57:17.996Z,19.92
2023-05-19T10:59:44.610Z,20.01
2023-05-19T11:02:11.394Z,20.04
2023-05-19T11:04:51.942Z,20.30
2023-05-19T11:07:18.971Z,20.46
2023-05-19T11:09:49.056Z,20.50
2023-05-19T11:12:15.614Z,20.51
2023-05-19T11:14:42.184Z,20.48
2023-05-19T11:17:08.762Z,20.55
2023-05-19T11:19:35.513Z,20.71
2023-05-19T11:22:08.669Z,20.81
2023-05-19T11:24:47.798Z,20.91
2023-05-19T11:27:23.264Z,21.19
2023-05-19T11:29:49.959Z,21.43
2023-05-19T11:32:16.662Z,21.39
2023-05-19T11:34:44.305Z,20.93
2023-05-19T11:37:10.904Z,20.53
2023-05-19T11:39:37.559Z,20.32
2023-05-19T11:42:04.371Z,20.32
2023-05-19T11:44:32.110Z,20.71
2023-05-19T11:46:59.273Z,20.98
2023-05-19T11:49:25.897Z,21.14
2023-05-19T11:51:52.471Z,21.40
2023-05-19T11:54:19.013Z,21.73
2023-05-19T11:56:45.598Z,21.44
2023-05-19T11:59:12.194Z,20.75
2023-05-19T12:01:38.773Z,20.03
2023-05-19T12:04:08.633Z,19.44
2023-05-19T12:06:35.230Z,19.08
2023-05-19T12:09:01.905Z,18.83
2023-05-19T12:11:28.716Z,18.62
2023-05-19T12:14:01.722Z,18.47
2023-05-19T12:16:35.054Z,18.40
2023-05-19T12:19:02.170Z,18.23
2023-05-19T12:21:33.799Z,18.16
2023-05-19T12:24:01.074Z,18.09
2023-05-19T12:26:27.769Z,18.17
2023-05-19T12:28:54.958Z,18.56
2023-05-19T12:31:21.558Z,19.25
2023-05-19T12:33:51.336Z,19.20
2023-05-19T12:36:18.481Z,18.84
2023-05-19T12:38:45.214Z,18.64
2023-05-19T12:41:12.156Z,19.06
2023-05-19T12:43:39.709Z,19.00
2023-05-19T12:46:10.485Z,18.93
2023-05-19T12:48:41.205Z,19.17
2023-05-19T12:51:07.778Z,19.29
2023-05-19T12:53:34.387Z,19.18
2023-05-19T12:56:00.957Z,19.11
2023-05-19T12:58:27.559Z,19.17
2023-05-19T13:00:58.789Z,19.56
2023-05-19T13:03:25.447Z,19.52
2023-05-19T13:05:52.095Z,19.72
2023-05-19T13:08:22.018Z,19.57
2023-05-19T13:10:48.707Z,19.30
2023-05-19T13:13:15.428Z,19.22
2023-05-19T13:15:44.276Z,19.47
2023-05-19T13:18:12.238Z,20.10
2023-05-19T13:20:39.502Z,20.43
2023-05-19T13:23:06.154Z,20.73
2023-05-19T13:25:35.868Z,21.08
2023-05-19T13:28:02.889Z,21.30
2023-05-19T13:30:29.467Z,21.47
2023-05-19T13:32:56.155Z,21.55
2023-05-19T13:35:22.887Z,21.49
2023-05-19T13:37:49.637Z,21.56
2023-05-19T13:40:16.375Z,21.84
2023-05-19T13:42:42.993Z,21.72
2023-05-19T13:45:09.824Z,21.37
2023-05-19T13:47:36.463Z,20.75
2023-05-19T13:50:03.936Z,20.39
2023-05-19T13:52:30.670Z,20.12
2023-05-19T13:54:57.276Z,19.79
2023-05-19T13:57:24.106Z,19.60
2023-05-19T14:00:01.692Z,19.51
2023-05-19T14:02:29.739Z,21.46
2023-05-19T14:04:56.632Z,23.09
2023-05-19T14:07:23.231Z,24.39
2023-05-19T14:09:49.873Z,25.40
2023-05-19T14:12:16.511Z,26.48
2023-05-19T14:14:43.143Z,26.89
2023-05-19T14:17:09.751Z,24.68
2023-05-19T14:19:36.345Z,22.85
2023-05-19T14:22:03.068Z,22.44
2023-05-19T14:24:29.677Z,24.01
2023-05-19T14:26:56.267Z,25.99
2023-05-19T14:29:22.829Z,27.75
2023-05-19T14:31:49.484Z,26.53
2023-05-19T14:34:16.169Z,23.98
2023-05-19T14:36:42.770Z,22.16
2023-05-19T14:39:09.346Z,22.78
2023-05-19T14:41:35.974Z,24.63
2023-05-19T14:44:02.579Z,24.33
2023-05-19T14:46:29.194Z,25.63
2023-05-19T14:48:55.843Z,27.10
2023-05-19T14:51:22.442Z,23.87
2023-05-19T14:53:49.015Z,22.01
2023-05-19T14:56:15.558Z,22.28
2023-05-19T14:58:42.132Z,21.93
2023-05-19T15:01:08.766Z,20.88
2023-05-19T15:03:35.401Z,19.94
2023-05-19T15:06:01.978Z,19.87
2023-05-19T15:08:28.578Z,19.38
2023-05-19T15:10:55.112Z,19.02
2023-05-19T15:13:21.744Z,18.90
2023-05-19T15:15:58.907Z,19.06
2023-05-19T15:18:31.558Z,19.29
2023-05-19T15:20:58.157Z,19.34
2023-05-19T15:23:24.684Z,19.62
2023-05-19T15:25:51.266Z,19.59
2023-05-19T15:28:17.894Z,19.16
2023-05-19T15:30:44.483Z,18.81
2023-05-19T15:33:11.869Z,18.64
2023-05-19T15:35:38.871Z,18.47
2023-05-19T15:38:05.576Z,18.30
2023-05-19T15:40:33.142Z,18.13
2023-05-19T15:42:59.965Z,18.09
2023-05-19T15:45:26.645Z,17.98
2023-05-19T15:47:53.265Z,18.03
2023-05-19T15:50:22.940Z,18.14
2023-05-19T15:52:49.602Z,18.79
2023-05-19T15:55:19.195Z,19.38
2023-05-19T15:57:45.822Z,19.47
2023-05-19T16:00:12.879Z,19.55
2023-05-19T16:02:39.590Z,19.61
2023-05-19T16:05:06.422Z,19.97
2023-05-19T16:07:33.003Z,20.17
2023-05-19T16:09:59.603Z,20.36
2023-05-19T16:12:26.198Z,20.68
2023-05-19T16:14:52.798Z,20.37
2023-05-19T16:17:19.416Z,19.60
2023-05-19T16:19:45.964Z,18.91
2023-05-19T16:22:12.653Z,18.48
2023-05-19T16:24:39.291Z,18.19
2023-05-19T16:27:05.854Z,17.99
2023-05-19T16:29:32.403Z,17.83
2023-05-19T16:31:58.986Z,17.73
2023-05-19T16:34:25.676Z,17.69
2023-05-19T16:36:52.278Z,17.67
2023-05-19T16:39:18.881Z,17.83
2023-05-19T16:41:45.483Z,18.14
2023-05-19T16:44:12.072Z,17.92
2023-05-19T16:46:38.777Z,17.78
2023-05-19T16:49:06.001Z,17.63
2023-05-19T16:51:32.580Z,17.53
2023-05-19T16:53:59.154Z,17.45
2023-05-19T16:56:25.750Z,17.37
2023-05-19T16:58:52.493Z,17.26
2023-05-19T17:01:19.182Z,17.21
2023-05-19T17:03:45.840Z,17.11
2023-05-19T17:06:12.507Z,16.97
2023-05-19T17:08:39.124Z,16.89
2023-05-19T17:11:05.820Z,16.89
2023-05-19T17:13:32.480Z,16.85
2023-05-19T17:15:59.415Z,16.84
2023-05-19T17:18:25.989Z,16.86
2023-05-19T17:20:52.594Z,16.79
2023-05-19T17:23:19.229Z,16.81
2023-05-19T17:25:46.120Z,16.70
2023-05-19T17:28:12.769Z,16.79
2023-05-19T17:30:39.898Z,16.75
2023-05-19T17:33:06.830Z,16.71
2023-05-19T17:35:33.632Z,16.66
2023-05-19T17:38:00.249Z,16.64
2023-05-19T17:40:27.010Z,16.59
2023-05-19T17:42:53.762Z,16.51
2023-05-19T17:45:20.370Z,16.51
2023-05-19T17:47:47.012Z,16.51
2023-05-19T17:50:13.723Z,16.37
2023-05-19T17:52:40.568Z,16.34
2023-05-19T17:55:07.946Z,16.30
2023-05-19T17:57:34.523Z,16.28
2023-05-19T18:00:01.350Z,16.21
2023-05-19T18:02:28.127Z,16.24
2023-05-19T18:04:55.188Z,16.16
2023-05-19T18:07:21.791Z,16.10
2023-05-19T18:09:48.540Z,16.07
2023-05-19T18:12:15.200Z,16.00
2023-05-19T18:14:41.724Z,15.95
2023-05-19T18:17:08.304Z,15.88
2023-05-19T18:19:34.887Z,15.93
2023-05-19T18:22:01.469Z,15.88
2023-05-19T18:24:28.111Z,15.79
2023-05-19T18:26:54.767Z,15.80
2023-05-19T18:29:21.364Z,15.66
2023-05-19T18:31:47.951Z,15.64
2023-05-19T18:34:14.540Z,15.52
2023-05-19T18:36:41.307Z,15.47
2023-05-19T18:39:07.920Z,15.39
2023-05-19T18:41:34.510Z,15.43
2023-05-19T18:44:01.314Z,15.43
2023-05-19T18:46:28.025Z,15.45
2023-05-19T18:48:54.653Z,15.46
2023-05-19T18:51:21.222Z,15.33
2023-05-19T18:53:47.813Z,15.26
2023-05-19T18:56:14.387Z,15.28
2023-05-19T18:58:41.094Z,15.12
2023-05-19T19:01:07.695Z,15.17
2023-05-19T19:03:34.387Z,15.24
2023-05-19T19:06:01.130Z,15.18
2023-05-19T19:08:27.736Z,15.08
2023-05-19T19:10:54.309Z,15.18
2023-05-19T19:13:20.998Z,15.09
2023-05-19T19:15:47.600Z,15.05
2023-05-19T19:18:14.947Z,15.02
2023-05-19T19:20:41.642Z,15.07
2023-05-19T19:23:08.289Z,14.97
2023-05-19T19:25:34.989Z,15.00
2023-05-19T19:28:01.608Z,14.95
2023-05-19T19:30:28.832Z,14.96
2023-05-19T19:32:55.490Z,14.99
2023-05-19T19:35:22.209Z,14.90
2023-05-19T19:37:48.790Z,14.98
2023-05-19T19:40:15.390Z,14.90
2023-05-19T19:42:41.967Z,14.84
2023-05-19T19:45:09.047Z,14.81
2023-05-19T19:47:35.622Z,14.82
2023-05-19T19:50:02.233Z,14.78
2023-05-19T19:52:28.831Z,14.80
2023-05-19T19:54:55.377Z,14.74
2023-05-19T19:57:22.012Z,14.66
2023-05-19T19:59:48.617Z,14.73
2023-05-19T22:01:03.259Z,13.02
2023-05-19T22:03:30.054Z,12.98
2023-05-19T22:05:56.721Z,12.89
2023-05-19T22:08:23.295Z,12.95
2023-05-19T22:10:49.990Z,12.90
2023-05-19T22:13:16.586Z,12.78
2023-05-19T22:15:43.152Z,12.75
2023-05-19T22:18:09.744Z,12.72
2023-05-19T22:20:36.310Z,12.71
2023-05-19T22:23:02.906Z,12.73
2023-05-19T22:25:29.738Z,12.67
2023-05-19T22:27:56.363Z,12.68
2023-05-19T22:30:23.163Z,12.65
2023-05-19T22:32:49.821Z,12.60
2023-05-19T22:35:16.418Z,12.51
2023-05-19T22:37:42.962Z,12.49
2023-05-19T22:40:09.746Z,12.46
2023-05-19T22:42:36.284Z,12.43
2023-05-19T22:45:02.884Z,12.47
2023-05-19T22:47:29.517Z,12.37
2023-05-19T22:49:57.155Z,12.34
2023-05-19T22:52:23.936Z,12.37
2023-05-19T22:54:50.444Z,12.32
2023-05-19T22:57:17.093Z,12.26
2023-05-19T22:59:43.648Z,12.25
2023-05-19T23:02:10.220Z,12.25
2023-05-19T23:04:36.903Z,12.23
2023-05-19T23:07:03.551Z,12.21
2023-05-19T23:09:30.136Z,12.17
2023-05-19T23:11:56.722Z,12.05
2023-05-19T23:14:23.273Z,12.09
2023-05-19T23:16:49.959Z,12.04
2023-05-19T23:19:16.549Z,12.07
2023-05-19T23:21:43.171Z,12.00
2023-05-19T23:24:09.783Z,12.03
2023-05-19T23:26:36.337Z,11.99
2023-05-19T23:29:02.946Z,11.92
2023-05-19T23:31:29.599Z,11.88
2023-05-19T23:33:56.241Z,11.86
2023-05-19T23:36:22.795Z,11.77
2023-05-19T23:38:49.377Z,11.79
2023-05-19T23:41:15.956Z,11.81
2023-05-19T23:43:42.480Z,11.77
2023-05-19T23:46:09.188Z,11.75
2023-05-19T23:48:35.843Z,11.69
2023-05-19T23:51:02.423Z,11.61
2023-05-19T23:53:28.955Z,11.59
2023-05-19T23:55:56.459Z,11.58
2023-05-19T23:58:23.782Z,11.57
